Time;durP1;ratioP1;P1;durP2;ratioP2;P2;SDS_P1;SDS_P2;PMS_P1;PMS_P2;Temp;Humidity;BMP_temperature;BMP_pressure;BME280_temperature;BME280_humidity;BME280_pressure;Samples;Min_cycle;Max_cycle;Signal;HPM_P1;HPM_P2
2021/07/21 00:01:23;;;;;;;10.05;7.75;;;;;;;;;;4978261;28;20023;-74
2021/07/21 00:03:49;;;;;;;9.80;6.35;;;;;;;;;;4977998;28;20030;-74
2021/07/21 00:06:15;;;;;;;7.60;6.80;;;;;;;;;;4978603;28;20082;-74
2021/07/21 00:08:41;;;;;;;9.00;6.50;;;;;;;;;;4977709;28;20027;-74
2021/07/21 00:13:55;;;;;;;10.32;6.65;;;;;;;;;;4977277;28;20030;-74
2021/07/21 00:16:29;;;;;;;9.85;6.35;;;;;;;;;;4978133;28;20034;-74
2021/07/21 00:19:02;;;;;;;7.22;6.05;;;;;;;;;;4977832;28;20031;-74
2021/07/21 00:21:28;;;;;;;8.40;7.53;;;;;;;;;;4977855;28;20026;-74
2021/07/21 00:23:54;;;;;;;7.30;6.53;;;;;;;;;;4977070;28;20042;-74
2021/07/21 00:26:20;;;;;;;8.65;6.68;;;;;;;;;;4977844;28;20030;-74
2021/07/21 00:28:46;;;;;;;7.47;6.32;;;;;;;;;;4977696;28;20035;-74
2021/07/21 00:31:15;;;;;;;8.00;6.93;;;;;;;;;;4977989;28;20592;-74
2021/07/21 00:33:41;;;;;;;14.02;7.25;;;;;;;;;;4977551;28;20035;-74
2021/07/21 00:36:07;;;;;;;12.65;6.82;;;;;;;;;;4977519;28;20066;-74
2021/07/21 00:38:33;;;;;;;8.73;6.60;;;;;;;;;;4977505;28;20049;-74
2021/07/21 00:40:59;;;;;;;7.60;6.20;;;;;;;;;;4977845;28;20525;-74
2021/07/21 00:43:27;;;;;;;8.05;6.53;;;;;;;;;;4977395;28;20591;-73
2021/07/21 00:45:53;;;;;;;10.18;6.63;;;;;;;;;;4977294;28;20026;-73
2021/07/21 00:48:20;;;;;;;6.45;5.78;;;;;;;;;;4977423;28;20114;-74
2021/07/21 00:50:46;;;;;;;7.70;6.88;;;;;;;;;;4977386;28;20031;-74
2021/07/21 00:53:12;;;;;;;10.00;8.00;;;;;;;;;;4977355;28;20106;-74
2021/07/21 00:55:38;;;;;;;7.72;6.82;;;;;;;;;;4976748;28;20504;-74
2021/07/21 00:58:04;;;;;;;8.90;6.55;;;;;;;;;;4977248;28;20480;-74
2021/07/21 01:00:30;;;;;;;9.00;6.55;;;;;;;;;;4977327;28;20111;-73
2021/07/21 01:02:56;;;;;;;8.07;5.82;;;;;;;;;;4977412;28;20027;-73
2021/07/21 01:05:25;;;;;;;6.82;5.93;;;;;;;;;;4976797;28;20121;-72
2021/07/21 01:07:51;;;;;;;8.15;6.53;;;;;;;;;;4976612;28;20033;-74
2021/07/21 01:10:18;;;;;;;10.52;6.35;;;;;;;;;;4977021;28;20027;-74
2021/07/21 01:12:48;;;;;;;8.60;6.38;;;;;;;;;;4977023;28;20018;-74
2021/07/21 01:15:18;;;;;;;8.52;5.90;;;;;;;;;;4977425;28;20023;-74
2021/07/21 01:17:46;;;;;;;6.55;5.50;;;;;;;;;;4976857;28;20109;-74
2021/07/21 01:20:20;;;;;;;7.43;6.18;;;;;;;;;;4975716;28;20034;-74
2021/07/21 01:22:46;;;;;;;7.97;7.18;;;;;;;;;;4977034;28;20022;-73
2021/07/21 01:25:14;;;;;;;6.47;5.85;;;;;;;;;;4976696;28;20035;-73
2021/07/21 01:28:01;;;;;;;7.35;6.45;;;;;;;;;;4976284;28;20034;-74
2021/07/21 01:30:28;;;;;;;7.53;6.65;;;;;;;;;;5002537;28;20039;-74
2021/07/21 01:32:55;;;;;;;7.78;6.15;;;;;;;;;;4976364;28;20506;-74
2021/07/21 01:35:22;;;;;;;7.50;6.75;;;;;;;;;;4976443;28;20029;-74
2021/07/21 01:37:51;;;;;;;6.22;5.70;;;;;;;;;;4976417;28;20113;-74
2021/07/21 01:40:18;;;;;;;6.95;6.25;;;;;;;;;;4976755;28;20035;-73
2021/07/21 01:42:44;;;;;;;14.60;6.72;;;;;;;;;;4976200;28;20384;-73
2021/07/21 01:45:11;;;;;;;6.57;5.95;;;;;;;;;;4976025;28;20058;-74
2021/07/21 01:47:37;;;;;;;10.15;6.38;;;;;;;;;;4976000;28;20105;-74
2021/07/21 01:50:04;;;;;;;6.72;5.43;;;;;;;;;;4977035;28;20073;-73
2021/07/21 01:52:30;;;;;;;8.07;5.57;;;;;;;;;;4976171;28;20027;-74
2021/07/21 01:54:57;;;;;;;5.70;4.90;;;;;;;;;;4976049;28;20081;-73
2021/07/21 01:57:23;;;;;;;8.95;6.15;;;;;;;;;;4976331;28;20026;-74
2021/07/21 01:59:50;;;;;;;7.43;6.57;;;;;;;;;;4975769;28;20085;-74
2021/07/21 02:02:16;;;;;;;6.85;6.20;;;;;;;;;;4975963;28;20042;-74
2021/07/21 02:04:42;;;;;;;8.25;5.90;;;;;;;;;;4975868;28;20046;-74
2021/07/21 02:07:08;;;;;;;7.70;5.65;;;;;;;;;;4976433;28;20035;-74
2021/07/21 02:09:34;;;;;;;11.68;5.85;;;;;;;;;;4976256;28;20031;-73
2021/07/21 02:12:01;;;;;;;8.38;5.03;;;;;;;;;;4976033;28;20457;-73
2021/07/21 02:14:27;;;;;;;5.90;5.30;;;;;;;;;;4975834;28;20035;-74
2021/07/21 02:16:53;;;;;;;5.32;4.78;;;;;;;;;;4975474;28;20031;-74
2021/07/21 02:19:19;;;;;;;7.95;6.55;;;;;;;;;;4975835;28;20035;-74
2021/07/21 02:21:45;;;;;;;7.22;5.45;;;;;;;;;;4975544;28;20033;-74
2021/07/21 02:24:11;;;;;;;5.30;4.80;;;;;;;;;;4975815;28;20031;-74
2021/07/21 02:26:38;;;;;;;6.05;5.32;;;;;;;;;;4975777;28;20033;-74
2021/07/21 02:29:05;;;;;;;7.05;4.97;;;;;;;;;;4975845;28;20057;-74
2021/07/21 02:31:32;;;;;;;9.15;5.32;;;;;;;;;;4975272;28;20122;-74
2021/07/21 02:34:02;;;;;;;5.13;4.60;;;;;;;;;;4975170;28;20030;-74
2021/07/21 02:36:29;;;;;;;8.35;4.85;;;;;;;;;;4975909;28;20497;-74
2021/07/21 02:38:55;;;;;;;7.05;5.13;;;;;;;;;;4975289;28;20496;-74
2021/07/21 02:41:21;;;;;;;4.80;4.40;;;;;;;;;;4975691;28;20033;-74
2021/07/21 02:43:47;;;;;;;5.35;4.47;;;;;;;;;;4975182;28;20027;-74
2021/07/21 02:46:13;;;;;;;8.13;4.85;;;;;;;;;;4975838;28;20130;-74
2021/07/21 02:48:42;;;;;;;5.15;4.40;;;;;;;;;;4975334;28;20058;-74
2021/07/21 02:51:09;;;;;;;5.97;5.20;;;;;;;;;;4975421;28;20035;-74
2021/07/21 02:53:35;;;;;;;10.95;5.13;;;;;;;;;;4975089;28;20027;-74
2021/07/21 02:56:03;;;;;;;5.20;4.65;;;;;;;;;;4975703;28;20023;-74
2021/07/21 02:58:32;;;;;;;5.65;5.05;;;;;;;;;;4975128;28;20027;-74
2021/07/21 03:00:58;;;;;;;8.48;4.55;;;;;;;;;;4975770;28;20038;-74
2021/07/21 03:03:24;;;;;;;6.05;5.32;;;;;;;;;;4975255;28;20022;-74
2021/07/21 03:05:50;;;;;;;8.73;4.95;;;;;;;;;;4975040;28;20031;-74
2021/07/21 03:08:18;;;;;;;6.25;5.45;;;;;;;;;;4975288;28;20023;-74
2021/07/21 03:10:44;;;;;;;5.28;4.57;;;;;;;;;;4975216;28;20031;-74
2021/07/21 03:13:14;;;;;;;7.97;4.72;;;;;;;;;;4975136;28;20078;-74
2021/07/21 03:15:41;;;;;;;8.13;4.70;;;;;;;;;;4975014;28;20023;-75
2021/07/21 03:18:09;;;;;;;7.55;4.60;;;;;;;;;;4974999;28;20031;-74
2021/07/21 03:20:35;;;;;;;5.40;4.85;;;;;;;;;;4975335;28;20066;-74
2021/07/21 03:23:02;;;;;;;9.38;5.38;;;;;;;;;;4975088;28;20527;-74
2021/07/21 03:25:29;;;;;;;6.05;4.38;;;;;;;;;;4974881;28;20131;-74
2021/07/21 03:27:55;;;;;;;6.53;4.30;;;;;;;;;;4974826;28;20078;-74
2021/07/21 03:30:22;;;;;;;4.60;4.20;;;;;;;;;;4975183;28;20405;-74
2021/07/21 03:32:48;;;;;;;5.53;4.22;;;;;;;;;;4975249;28;20114;-74
2021/07/21 03:35:14;;;;;;;5.93;5.30;;;;;;;;;;4974955;28;20027;-74
2021/07/21 03:37:40;;;;;;;12.10;4.43;;;;;;;;;;4974788;28;20114;-74
2021/07/21 03:40:07;;;;;;;4.18;3.80;;;;;;;;;;4975166;28;20035;-74
2021/07/21 03:42:33;;;;;;;4.82;4.20;;;;;;;;;;4974835;28;20031;-74
2021/07/21 03:45:00;;;;;;;5.18;3.80;;;;;;;;;;4978233;28;20062;-74
2021/07/21 03:47:26;;;;;;;5.15;4.50;;;;;;;;;;4978451;28;20034;-74
2021/07/21 03:49:53;;;;;;;4.97;4.15;;;;;;;;;;4978301;28;20445;-74
2021/07/21 03:52:19;;;;;;;6.65;4.88;;;;;;;;;;4978534;28;20023;-74
2021/07/21 03:54:45;;;;;;;7.70;3.75;;;;;;;;;;4978547;28;20523;-74
2021/07/21 03:57:12;;;;;;;7.20;4.88;;;;;;;;;;4978059;28;20047;-74
2021/07/21 03:59:38;;;;;;;11.55;4.60;;;;;;;;;;4978179;28;20089;-75
2021/07/21 04:02:05;;;;;;;6.03;4.95;;;;;;;;;;4978233;28;20418;-74
2021/07/21 04:04:32;;;;;;;10.57;4.22;;;;;;;;;;4978168;28;20428;-74
2021/07/21 04:06:58;;;;;;;5.05;4.20;;;;;;;;;;4978388;28;20167;-74
2021/07/21 04:09:24;;;;;;;8.02;4.53;;;;;;;;;;4978296;28;20493;-74
2021/07/21 04:11:50;;;;;;;8.10;4.60;;;;;;;;;;4977506;28;20227;-74
2021/07/21 04:14:17;;;;;;;6.88;4.22;;;;;;;;;;4978110;28;20064;-74
2021/07/21 04:16:43;;;;;;;5.05;4.03;;;;;;;;;;4978547;28;20023;-74
2021/07/21 04:19:10;;;;;;;7.05;3.88;;;;;;;;;;4978108;28;20023;-74
2021/07/21 04:21:38;;;;;;;5.07;3.97;;;;;;;;;;4977668;28;20030;-76
2021/07/21 04:24:04;;;;;;;5.25;4.38;;;;;;;;;;4977643;28;20109;-75
2021/07/21 04:26:32;;;;;;;7.65;5.03;;;;;;;;;;4977870;28;20027;-74
2021/07/21 04:28:58;;;;;;;6.03;4.63;;;;;;;;;;4978214;28;20035;-74
2021/07/21 04:31:27;;;;;;;7.82;4.32;;;;;;;;;;4977850;28;20026;-74
2021/07/21 04:33:54;;;;;;;4.95;3.80;;;;;;;;;;4977432;28;20421;-74
2021/07/21 04:36:20;;;;;;;7.38;4.38;;;;;;;;;;4977523;28;20015;-74
2021/07/21 04:38:47;;;;;;;5.72;4.65;;;;;;;;;;4977580;28;20031;-75
2021/07/21 04:41:13;;;;;;;6.60;4.32;;;;;;;;;;4977657;28;20067;-74
2021/07/21 04:43:39;;;;;;;6.38;5.30;;;;;;;;;;4977400;28;20505;-74
2021/07/21 04:46:05;;;;;;;5.68;4.22;;;;;;;;;;4977721;28;20031;-74
2021/07/21 04:48:31;;;;;;;8.45;4.72;;;;;;;;;;4977598;28;20024;-74
2021/07/21 04:50:57;;;;;;;9.15;3.97;;;;;;;;;;4977206;28;20472;-73
2021/07/21 04:53:23;;;;;;;4.70;4.13;;;;;;;;;;4975756;28;20046;-73
2021/07/21 04:55:49;;;;;;;8.60;5.40;;;;;;;;;;4975925;28;20035;-75
2021/07/21 04:58:16;;;;;;;4.80;4.30;;;;;;;;;;4976092;28;20031;-73
2021/07/21 05:00:42;;;;;;;6.95;3.88;;;;;;;;;;4975947;28;20046;-74
2021/07/21 05:03:10;;;;;;;5.28;4.75;;;;;;;;;;4976235;28;20026;-74
2021/07/21 05:05:36;;;;;;;10.40;4.78;;;;;;;;;;4975420;28;20074;-80
2021/07/21 05:08:02;;;;;;;5.05;4.32;;;;;;;;;;4975661;28;20035;-73
2021/07/21 05:10:29;;;;;;;7.93;4.70;;;;;;;;;;4975808;28;20031;-70
2021/07/21 05:12:55;;;;;;;8.98;3.58;;;;;;;;;;4975659;28;20073;-73
2021/07/21 05:15:21;;;;;;;6.35;4.80;;;;;;;;;;4975653;28;20022;-71
2021/07/21 05:17:47;;;;;;;21.23;4.70;;;;;;;;;;4975682;28;20025;-76
2021/07/21 05:20:13;;;;;;;10.73;4.53;;;;;;;;;;4975743;28;20066;-73
2021/07/21 05:22:45;;;;;;;12.90;4.13;;;;;;;;;;4975212;28;20014;-73
2021/07/21 05:25:11;;;;;;;11.05;4.53;;;;;;;;;;4972622;28;20070;-76
2021/07/21 05:27:38;;;;;;;5.63;4.53;;;;;;;;;;4975184;28;20420;-76
2021/07/21 05:30:04;;;;;;;10.30;4.95;;;;;;;;;;4975585;28;20022;-79
2021/07/21 05:32:30;;;;;;;8.38;5.28;;;;;;;;;;4975404;28;20027;-74
2021/07/21 05:34:57;;;;;;;13.45;4.75;;;;;;;;;;4975372;28;20029;-78
2021/07/21 05:37:23;;;;;;;10.23;5.05;;;;;;;;;;4975061;28;20019;-74
2021/07/21 05:39:49;;;;;;;11.25;4.53;;;;;;;;;;4974769;28;20027;-76
2021/07/21 05:42:15;;;;;;;13.57;5.18;;;;;;;;;;4974996;28;20500;-75
2021/07/21 05:44:41;;;;;;;6.70;4.57;;;;;;;;;;4975165;28;20038;-77
2021/07/21 05:47:07;;;;;;;6.50;4.43;;;;;;;;;;4975078;28;20026;-77
2021/07/21 05:49:33;;;;;;;4.35;4.03;;;;;;;;;;4974771;28;20023;-78
2021/07/21 05:52:01;;;;;;;10.27;5.50;;;;;;;;;;4974539;28;20026;-73
2021/07/21 05:54:27;;;;;;;10.90;4.75;;;;;;;;;;4974376;28;20129;-77
2021/07/21 05:56:53;;;;;;;13.68;5.65;;;;;;;;;;4975110;28;20019;-76
2021/07/21 05:59:19;;;;;;;5.53;4.00;;;;;;;;;;4974960;28;20134;-74
2021/07/21 06:01:45;;;;;;;5.85;4.07;;;;;;;;;;4974819;28;20023;-74
2021/07/21 06:04:12;;;;;;;6.30;4.18;;;;;;;;;;4974624;28;20046;-72
2021/07/21 06:06:38;;;;;;;12.90;4.72;;;;;;;;;;4974270;28;20030;-77
2021/07/21 06:09:04;;;;;;;5.78;4.28;;;;;;;;;;4974777;28;20023;-76
2021/07/21 06:11:30;;;;;;;6.93;5.00;;;;;;;;;;4976584;28;20026;-73
2021/07/21 06:13:59;;;;;;;4.93;4.28;;;;;;;;;;4975115;28;20534;-73
2021/07/21 06:16:25;;;;;;;4.68;3.55;;;;;;;;;;4975536;28;20027;-71
2021/07/21 06:18:52;;;;;;;6.88;4.32;;;;;;;;;;4975562;28;20023;-74
2021/07/21 06:21:18;;;;;;;6.35;4.50;;;;;;;;;;4974770;28;20643;-72
2021/07/21 06:23:45;;;;;;;7.28;4.82;;;;;;;;;;4974919;28;20369;-69
2021/07/21 06:26:11;;;;;;;5.22;3.53;;;;;;;;;;4976317;28;20117;-73
2021/07/21 06:28:37;;;;;;;4.63;3.45;;;;;;;;;;4975777;28;20034;-73
2021/07/21 06:31:03;;;;;;;34.72;4.80;;;;;;;;;;4976128;28;20031;-71
2021/07/21 06:33:30;;;;;;;7.13;5.43;;;;;;;;;;4975945;28;20105;-74
2021/07/21 06:35:56;;;;;;;14.00;8.68;;;;;;;;;;4975263;28;20027;-70
2021/07/21 06:38:22;;;;;;;19.63;10.07;;;;;;;;;;4975716;28;20380;-74
2021/07/21 06:40:48;;;;;;;15.15;8.25;;;;;;;;;;4976241;28;20580;-74
2021/07/21 06:43:14;;;;;;;12.65;6.13;;;;;;;;;;4975968;28;20022;-72
2021/07/21 06:45:40;;;;;;;8.40;6.03;;;;;;;;;;4975917;28;20126;-73
2021/07/21 06:48:06;;;;;;;11.68;6.43;;;;;;;;;;4975740;28;20031;-73
2021/07/21 06:50:33;;;;;;;9.25;6.13;;;;;;;;;;4975471;28;20576;-75
2021/07/21 06:52:59;;;;;;;14.40;6.63;;;;;;;;;;4975787;28;20114;-75
2021/07/21 06:55:25;;;;;;;9.35;5.78;;;;;;;;;;4976066;28;20055;-75
2021/07/21 06:57:51;;;;;;;16.08;4.78;;;;;;;;;;4974431;28;20556;-76
2021/07/21 07:00:17;;;;;;;6.35;4.82;;;;;;;;;;4974111;28;20106;-77
2021/07/21 07:02:43;;;;;;;9.23;5.20;;;;;;;;;;4975189;28;20026;-76
2021/07/21 07:05:10;;;;;;;6.13;4.43;;;;;;;;;;4975012;28;20027;-77
2021/07/21 07:07:36;;;;;;;8.77;5.32;;;;;;;;;;4975309;28;20483;-80
2021/07/21 07:10:03;;;;;;;8.73;5.03;;;;;;;;;;4975502;28;20031;-77
2021/07/21 07:12:29;;;;;;;5.93;4.75;;;;;;;;;;4975783;28;20041;-76
2021/07/21 07:14:55;;;;;;;7.10;4.05;;;;;;;;;;4975445;28;20038;-77
2021/07/21 07:17:21;;;;;;;12.63;5.18;;;;;;;;;;4975338;28;20019;-74
2021/07/21 07:19:47;;;;;;;50.58;22.25;;;;;;;;;;4977887;28;20023;-75
2021/07/21 07:22:13;;;;;;;101.97;43.85;;;;;;;;;;4979209;28;20022;-75
2021/07/21 07:24:39;;;;;;;134.95;65.10;;;;;;;;;;4979576;28;20038;-74
2021/07/21 07:27:05;;;;;;;102.05;50.72;;;;;;;;;;4978981;28;20027;-74
2021/07/21 07:29:31;;;;;;;69.50;37.22;;;;;;;;;;4978859;28;20453;-74
2021/07/21 07:31:57;;;;;;;64.43;32.78;;;;;;;;;;4978803;28;20023;-75
2021/07/21 07:34:23;;;;;;;64.38;30.23;;;;;;;;;;4978964;28;20023;-74
2021/07/21 07:36:50;;;;;;;42.35;23.33;;;;;;;;;;4978727;28;20465;-76
2021/07/21 07:39:16;;;;;;;36.55;20.17;;;;;;;;;;4979110;28;20061;-75
2021/07/21 07:41:42;;;;;;;34.92;17.77;;;;;;;;;;4978181;28;20026;-75
2021/07/21 07:44:08;;;;;;;29.98;18.23;;;;;;;;;;4978841;28;20031;-75
2021/07/21 07:46:35;;;;;;;38.05;20.83;;;;;;;;;;4978853;28;20492;-75
2021/07/21 07:49:01;;;;;;;37.67;19.33;;;;;;;;;;4978665;28;20484;-75
2021/07/21 07:51:29;;;;;;;34.15;16.92;;;;;;;;;;4978188;28;20457;-75
2021/07/21 07:53:55;;;;;;;31.70;18.38;;;;;;;;;;4977990;28;20393;-76
2021/07/21 07:56:21;;;;;;;34.90;17.55;;;;;;;;;;4978561;28;20022;-76
2021/07/21 07:58:47;;;;;;;45.67;17.55;;;;;;;;;;4978267;28;20438;-76
2021/07/21 08:01:13;;;;;;;37.58;16.50;;;;;;;;;;4978158;28;20057;-76
2021/07/21 08:03:39;;;;;;;22.80;9.48;;;;;;;;;;4977913;28;20027;-74
2021/07/21 08:06:20;;;;;;;17.55;10.55;;;;;;;;;;4978078;28;20034;-75
2021/07/21 08:08:46;;;;;;;17.40;10.57;;;;;;;;;;4977913;28;20026;-75
2021/07/21 08:11:13;;;;;;;13.82;9.48;;;;;;;;;;4978467;28;20290;-75
2021/07/21 08:13:40;;;;;;;20.05;8.98;;;;;;;;;;4977865;28;20030;-76
2021/07/21 08:16:06;;;;;;;19.42;9.38;;;;;;;;;;4977620;28;20093;-75
2021/07/21 08:18:32;;;;;;;13.95;9.05;;;;;;;;;;4977761;28;20031;-76
2021/07/21 08:20:58;;;;;;;17.20;11.45;;;;;;;;;;4978307;28;20034;-76
2021/07/21 08:23:24;;;;;;;11.70;7.82;;;;;;;;;;4978544;28;20031;-76
2021/07/21 08:25:51;;;;;;;17.90;8.02;;;;;;;;;;4976903;28;20050;-76
2021/07/21 08:28:18;;;;;;;17.50;8.23;;;;;;;;;;4977838;28;20033;-76
2021/07/21 08:30:44;;;;;;;38.60;13.85;;;;;;;;;;4977364;28;20081;-76
2021/07/21 08:33:11;;;;;;;22.75;10.93;;;;;;;;;;4974924;28;20019;-76
2021/07/21 08:35:38;;;;;;;18.73;12.23;;;;;;;;;;4978028;28;20019;-77
2021/07/21 08:38:07;;;;;;;20.40;9.38;;;;;;;;;;4977133;28;20023;-76
2021/07/21 08:40:38;;;;;;;15.85;7.75;;;;;;;;;;4978087;28;20081;-76
2021/07/21 08:43:06;;;;;;;16.63;6.22;;;;;;;;;;4978172;28;20025;-84
2021/07/21 08:45:32;;;;;;;18.80;9.25;;;;;;;;;;4977297;28;20034;-80
2021/07/21 08:47:58;;;;;;;19.80;7.25;;;;;;;;;;4987295;28;20532;-75
2021/07/21 08:50:24;;;;;;;12.85;6.38;;;;;;;;;;4997142;28;20033;-75
2021/07/21 08:52:53;;;;;;;8.75;5.82;;;;;;;;;;4997292;28;20487;-76
2021/07/21 08:55:19;;;;;;;10.27;7.20;;;;;;;;;;4992536;28;20508;-76
2021/07/21 08:57:45;;;;;;;7.38;6.55;;;;;;;;;;4985933;28;20054;-76
2021/07/21 09:00:13;;;;;;;9.60;6.05;;;;;;;;;;4977421;28;20031;-76
2021/07/21 09:02:39;;;;;;;13.00;5.53;;;;;;;;;;4977439;28;20023;-76
2021/07/21 09:05:08;;;;;;;10.07;6.55;;;;;;;;;;4977380;28;20121;-77
2021/07/21 09:07:35;;;;;;;7.50;5.22;;;;;;;;;;4982876;28;20023;-77
2021/07/21 09:10:01;;;;;;;10.45;5.18;;;;;;;;;;4996471;28;20081;-76
2021/07/21 09:12:27;;;;;;;9.07;5.45;;;;;;;;;;4996297;28;20022;-76
2021/07/21 09:14:53;;;;;;;5.90;5.00;;;;;;;;;;4996194;28;20062;-77
2021/07/21 09:17:22;;;;;;;9.85;5.22;;;;;;;;;;4994592;28;20030;-76
2021/07/21 09:19:49;;;;;;;7.28;4.68;;;;;;;;;;4957480;28;20370;-76
2021/07/21 09:22:16;;;;;;;8.00;5.90;;;;;;;;;;4957394;28;20378;-78
2021/07/21 09:24:42;;;;;;;8.23;5.13;;;;;;;;;;4957470;28;20027;-77
2021/07/21 09:27:08;;;;;;;8.77;5.82;;;;;;;;;;4963777;28;20039;-75
2021/07/21 09:29:34;;;;;;;6.25;5.07;;;;;;;;;;4995372;28;20026;-74
2021/07/21 09:32:01;;;;;;;5.28;4.60;;;;;;;;;;4995735;28;20057;-75
2021/07/21 09:34:28;;;;;;;9.65;5.10;;;;;;;;;;4995556;28;20041;-74
2021/07/21 09:37:12;;;;;;;21.25;9.85;;;;;;;;;;4993811;28;20038;-75
2021/07/21 09:39:40;;;;;;;30.75;15.35;;;;;;;;;;4994486;28;20027;-73
2021/07/21 09:42:06;;;;;;;29.83;13.70;;;;;;;;;;4991358;28;20027;-75
2021/07/21 09:44:34;;;;;;;32.20;13.30;;;;;;;;;;4974358;28;20042;-76
2021/07/21 09:47:17;;;;;;;23.75;12.63;;;;;;;;;;4971486;28;20027;-75
2021/07/21 09:49:43;;;;;;;18.88;11.13;;;;;;;;;;4972895;28;20019;-75
2021/07/21 09:52:25;;;;;;;16.85;11.15;;;;;;;;;;4975724;28;20023;-73
2021/07/21 09:55:08;;;;;;;20.35;11.18;;;;;;;;;;4975608;28;20141;-71
2021/07/21 09:57:34;;;;;;;16.38;9.48;;;;;;;;;;4975869;28;20027;-74
2021/07/21 10:00:00;;;;;;;12.52;8.38;;;;;;;;;;4975331;28;20165;-72
2021/07/21 10:02:27;;;;;;;11.52;7.32;;;;;;;;;;4975018;28;20045;-76
2021/07/21 10:04:53;;;;;;;14.75;6.85;;;;;;;;;;4975535;28;20042;-73
2021/07/21 10:07:51;;;;;;;11.43;6.68;;;;;;;;;;4975583;28;20031;-75
2021/07/21 10:10:19;;;;;;;10.60;6.40;;;;;;;;;;4975666;28;20031;-75
2021/07/21 10:12:45;;;;;;;10.73;5.80;;;;;;;;;;4975555;28;20097;-73
2021/07/21 10:15:11;;;;;;;11.35;6.07;;;;;;;;;;4975062;28;20077;-73
2021/07/21 10:17:37;;;;;;;6.50;5.45;;;;;;;;;;4974768;28;20070;-70
2021/07/21 10:20:04;;;;;;;7.25;5.68;;;;;;;;;;4975184;28;20123;-75
2021/07/21 10:22:30;;;;;;;7.28;5.75;;;;;;;;;;4975246;28;20361;-72
2021/07/21 10:24:57;;;;;;;7.65;5.45;;;;;;;;;;4974917;28;20031;-75
2021/07/21 10:27:23;;;;;;;6.75;4.90;;;;;;;;;;4975392;28;20027;-74
2021/07/21 10:29:51;;;;;;;8.00;5.80;;;;;;;;;;4974163;28;20026;-72
2021/07/21 10:32:18;;;;;;;9.75;5.63;;;;;;;;;;4974879;28;20034;-74
2021/07/21 10:34:44;;;;;;;6.28;5.10;;;;;;;;;;4973880;28;20030;-74
2021/07/21 10:37:11;;;;;;;7.35;4.78;;;;;;;;;;4974559;28;20023;-74
2021/07/21 10:39:37;;;;;;;6.80;4.25;;;;;;;;;;4971756;28;20030;-73
2021/07/21 10:42:07;;;;;;;10.95;5.57;;;;;;;;;;4975041;28;20453;-72
2021/07/21 10:44:33;;;;;;;7.38;4.75;;;;;;;;;;4974166;28;20489;-73
2021/07/21 10:47:00;;;;;;;6.90;5.85;;;;;;;;;;4974579;28;20031;-73
2021/07/21 10:49:44;;;;;;;9.90;5.43;;;;;;;;;;4974938;28;20033;-73
2021/07/21 10:52:32;;;;;;;9.70;5.70;;;;;;;;;;4973514;28;20461;-74
2021/07/21 10:55:04;;;;;;;6.15;4.30;;;;;;;;;;4975263;28;20465;-74
2021/07/21 11:00:17;;;;;;;6.72;4.63;;;;;;;;;;4974325;28;19906;-72
2021/07/21 11:02:44;;;;;;;12.00;5.63;;;;;;;;;;4975007;28;20023;-74
2021/07/21 11:05:29;;;;;;;8.50;4.75;;;;;;;;;;4975126;28;20041;-74
2021/07/21 11:07:55;;;;;;;8.00;5.43;;;;;;;;;;4975926;28;20070;-74
2021/07/21 11:10:37;;;;;;;8.38;5.53;;;;;;;;;;4975206;28;20026;-73
2021/07/21 11:13:04;;;;;;;7.85;5.00;;;;;;;;;;4974544;28;20547;-74
2021/07/21 11:15:47;;;;;;;10.20;4.50;;;;;;;;;;4974743;28;20023;-74
2021/07/21 11:18:33;;;;;;;7.63;4.82;;;;;;;;;;4974426;28;20081;-73
2021/07/21 11:21:03;;;;;;;5.72;4.82;;;;;;;;;;5000630;28;20373;-72
2021/07/21 11:23:49;;;;;;;10.13;5.63;;;;;;;;;;4974518;28;20031;-74
2021/07/21 11:26:35;;;;;;;8.20;4.93;;;;;;;;;;5000561;28;20035;-71
2021/07/21 11:29:21;;;;;;;7.20;4.70;;;;;;;;;;5000283;28;20377;-72
2021/07/21 11:31:57;;;;;;;11.20;5.72;;;;;;;;;;5000639;28;20089;-73
2021/07/21 11:34:30;;;;;;;8.98;5.00;;;;;;;;;;4974603;28;20027;-72
2021/07/21 11:36:57;;;;;;;6.78;5.18;;;;;;;;;;4973808;28;20035;-72
2021/07/21 11:39:44;;;;;;;7.93;6.18;;;;;;;;;;4974360;28;20034;-72
2021/07/21 11:42:26;;;;;;;6.35;5.28;;;;;;;;;;4999475;28;20069;-72
2021/07/21 11:44:52;;;;;;;9.90;5.28;;;;;;;;;;4968703;28;20121;-73
2021/07/21 11:47:19;;;;;;;11.63;5.40;;;;;;;;;;4976027;28;20026;-75
2021/07/21 11:49:49;;;;;;;8.75;6.25;;;;;;;;;;4974889;28;20035;-72
2021/07/21 11:52:15;;;;;;;9.65;5.97;;;;;;;;;;4974686;28;20106;-72
2021/07/21 11:54:41;;;;;;;6.50;4.95;;;;;;;;;;4973747;28;20449;-72
2021/07/21 11:57:08;;;;;;;6.38;5.00;;;;;;;;;;4975244;28;20018;-73
2021/07/21 11:59:36;;;;;;;7.72;5.03;;;;;;;;;;4975142;28;20062;-72
2021/07/21 12:02:07;;;;;;;4.43;4.03;;;;;;;;;;4974037;28;20103;-73
2021/07/21 12:04:33;;;;;;;8.18;5.35;;;;;;;;;;4975059;28;20043;-73
2021/07/21 12:06:59;;;;;;;5.90;4.95;;;;;;;;;;4977969;28;20059;-72
2021/07/21 12:09:27;;;;;;;10.27;5.47;;;;;;;;;;4977816;28;20034;-73
2021/07/21 12:11:57;;;;;;;9.90;5.95;;;;;;;;;;4977631;28;20026;-72
2021/07/21 12:14:23;;;;;;;5.45;4.55;;;;;;;;;;4977455;28;20027;-72
2021/07/21 12:16:49;;;;;;;7.53;5.32;;;;;;;;;;4977665;28;20053;-72
2021/07/21 12:19:15;;;;;;;10.30;5.15;;;;;;;;;;4977515;28;20035;-73
2021/07/21 12:21:41;;;;;;;8.68;5.18;;;;;;;;;;4976142;28;20552;-72
2021/07/21 12:24:12;;;;;;;7.07;5.03;;;;;;;;;;4975412;28;20030;-73
2021/07/21 12:26:40;;;;;;;7.22;4.82;;;;;;;;;;4975336;28;20109;-73
2021/07/21 12:29:06;;;;;;;6.85;5.18;;;;;;;;;;4975448;28;20488;-72
2021/07/21 12:31:32;;;;;;;8.60;4.85;;;;;;;;;;4975176;28;20031;-71
2021/07/21 12:34:14;;;;;;;6.72;4.45;;;;;;;;;;4975268;28;20033;-72
2021/07/21 12:36:40;;;;;;;;;;;;;;;;;;4977238;28;20022;-73
2021/07/21 12:39:07;;;;;;;6.53;4.03;;;;;;;;;;4976798;28;19906;-73
2021/07/21 12:41:33;;;;;;;4.88;4.05;;;;;;;;;;4977014;28;20413;-72
2021/07/21 12:43:59;;;;;;;5.82;4.35;;;;;;;;;;4973446;28;20445;-71
2021/07/21 12:46:25;;;;;;;7.70;4.30;;;;;;;;;;4976511;28;20031;-73
2021/07/21 12:48:54;;;;;;;24.00;5.68;;;;;;;;;;4976641;28;20113;-74
2021/07/21 12:51:20;;;;;;;5.47;4.43;;;;;;;;;;4976828;28;20373;-74
2021/07/21 12:53:46;;;;;;;6.35;4.45;;;;;;;;;;4977386;28;20027;-73
2021/07/21 12:56:12;;;;;;;8.52;5.10;;;;;;;;;;4978074;28;20055;-76
2021/07/21 12:58:38;;;;;;;4.93;4.43;;;;;;;;;;4977868;28;20031;-78
2021/07/21 13:01:04;;;;;;;10.57;4.82;;;;;;;;;;4977401;28;20027;-73
2021/07/21 13:03:30;;;;;;;5.25;4.25;;;;;;;;;;4978253;28;20050;-71
2021/07/21 13:05:59;;;;;;;6.72;4.55;;;;;;;;;;4977671;28;20043;-71
2021/07/21 13:08:27;;;;;;;6.13;4.75;;;;;;;;;;4978066;28;20444;-71
2021/07/21 13:11:03;;;;;;;7.43;4.40;;;;;;;;;;4977819;28;20090;-73
2021/07/21 13:13:30;;;;;;;6.00;4.82;;;;;;;;;;4976734;28;21424;-72
2021/07/21 13:15:59;;;;;;;8.13;5.05;;;;;;;;;;4976697;28;20199;-71
2021/07/21 13:18:29;;;;;;;4.90;4.40;;;;;;;;;;4976449;28;20082;-71
2021/07/21 13:20:55;;;;;;;11.27;4.45;;;;;;;;;;4976534;28;20019;-74
2021/07/21 13:23:23;;;;;;;7.03;4.88;;;;;;;;;;4976293;28;20027;-72
2021/07/21 13:25:49;;;;;;;7.10;4.90;;;;;;;;;;4976382;28;20038;-77
2021/07/21 13:28:31;;;;;;;6.20;5.22;;;;;;;;;;4976510;28;20038;-77
2021/07/21 13:30:58;;;;;;;8.20;4.95;;;;;;;;;;4975470;28;20459;-74
2021/07/21 13:33:32;;;;;;;7.70;3.83;;;;;;;;;;4977028;28;20046;-72
2021/07/21 13:35:59;;;;;;;29.48;5.63;;;;;;;;;;4977017;28;20045;-75
2021/07/21 13:38:25;;;;;;;6.90;5.03;;;;;;;;;;4976766;28;20103;-74
2021/07/21 13:40:58;;;;;;;5.95;4.57;;;;;;;;;;4976287;28;20038;-75
2021/07/21 13:43:26;;;;;;;5.53;3.83;;;;;;;;;;4977498;28;20370;-74
2021/07/21 13:45:52;;;;;;;6.00;5.18;;;;;;;;;;4977150;28;20046;-72
2021/07/21 13:48:28;;;;;;;5.28;4.75;;;;;;;;;;4977478;28;20027;-75
2021/07/21 13:51:10;;;;;;;5.28;4.80;;;;;;;;;;4976632;28;20061;-72
2021/07/21 13:53:36;;;;;;;7.50;4.65;;;;;;;;;;4976889;28;20027;-76
2021/07/21 13:56:03;;;;;;;6.13;4.82;;;;;;;;;;4976786;28;20130;-72
2021/07/21 13:58:29;;;;;;;12.43;5.13;;;;;;;;;;4975391;28;20027;-73
2021/07/21 14:00:55;;;;;;;6.18;4.35;;;;;;;;;;4976987;28;20027;-71
2021/07/21 14:03:21;;;;;;;7.22;5.03;;;;;;;;;;4976236;28;20081;-73
2021/07/21 14:05:48;;;;;;;5.00;4.50;;;;;;;;;;4976145;28;20035;-71
2021/07/21 14:08:14;;;;;;;6.03;5.53;;;;;;;;;;4976189;28;20329;-71
2021/07/21 14:10:40;;;;;;;5.72;4.85;;;;;;;;;;4975909;28;20035;-73
2021/07/21 14:13:06;;;;;;;5.03;4.57;;;;;;;;;;4975397;28;20023;-74
2021/07/21 14:15:34;;;;;;;5.32;4.82;;;;;;;;;;4976405;28;20150;-70
2021/07/21 14:18:00;;;;;;;9.52;5.13;;;;;;;;;;4976315;28;20034;-72
2021/07/21 14:20:26;;;;;;;4.95;4.43;;;;;;;;;;4976998;28;20369;-75
2021/07/21 14:22:52;;;;;;;5.82;4.88;;;;;;;;;;4977508;28;20031;-76
2021/07/21 14:25:18;;;;;;;5.57;4.78;;;;;;;;;;4976719;28;20563;-74
2021/07/21 14:27:45;;;;;;;13.27;4.82;;;;;;;;;;4975938;28;20037;-72
2021/07/21 14:30:11;;;;;;;6.45;4.38;;;;;;;;;;4976818;28;20384;-76
2021/07/21 14:32:38;;;;;;;7.10;5.25;;;;;;;;;;4976286;28;20422;-72
2021/07/21 14:35:04;;;;;;;6.03;4.68;;;;;;;;;;4977159;28;20425;-73
2021/07/21 14:37:30;;;;;;;6.22;4.93;;;;;;;;;;4978264;28;20023;-76
2021/07/21 14:39:56;;;;;;;7.82;4.45;;;;;;;;;;4977227;28;20031;-76
2021/07/21 14:42:22;;;;;;;7.85;5.22;;;;;;;;;;4976155;28;20110;-71
2021/07/21 14:44:48;;;;;;;11.55;5.60;;;;;;;;;;4975436;28;20035;-71
2021/07/21 14:47:15;;;;;;;7.57;4.70;;;;;;;;;;4975846;28;20058;-77